Portada
METAR-TAF:

METAR-TAF

Aeroports :

Aeroport Internacional del Caire

El Caire, Egipte

latitud: 30-08N, longitud: 031-24E, altitud: 64 m

Observació

L'informe es va fer fa 25 minuts, a les 07:00 UTC
Vent 9 kt del Sud
Temperatura 30°C
Humitat 27%
Pressió 1013 hPa
Visibilitat: 3000 m

METAR: HECA 220700Z 19009KT 3000 NSC 30/09 Q1013 NOSIG

Hora: 09:25 (07:25 UTC)

Pronòstic

L'informe es va fer fa 25 minuts, a les 07:00 UTC
Pronòstic vàlid del 22 a les 07 UTC al 23 a les 12 UTC
Vent 10 kt del Sud/Sud-Oest
Visibilitat 10 km o més
sense núvols per sota de 1500 mi sense presència de cumulonimbus.
Temporalment
l' 22 a les 07 UTC al 22 a les 09 UTC
Visibilitat: 6000 m

TAF: HECA 220700Z 2207/2312 20010KT CAVOK TEMPO 2207/2209 6000 NSC

Observacions i pronòstics meteorològics de més de 4000 aeroports (METAR i TAF).

Les estacions disponibles són els punts grocs i vermells al mapa.

Posi el ratolí al punt desitjat per veure el nom de l'estació.

Feu clic per veure les observacions i els pronòstics meteorològics.

Per canviar el mapa: feu clic els botons verds amb una creu de color negre per apropar; al botó verd amb un guió per allunyar la imatge; o en les fletxes verdes per a mapes adjacents.


METAR-TAF: